createdAt,value
2022-12-17T00:02:11.120Z,212.93
2022-12-17T00:05:12.634Z,168.27
2022-12-17T00:08:14.059Z,217.93
2022-12-17T00:11:15.543Z,244.15
2022-12-17T00:14:17.016Z,169.23
2022-12-17T00:17:18.488Z,239.38
2022-12-17T00:20:20.017Z,208.88
2022-12-17T00:23:21.428Z,213.70
2022-12-17T00:26:22.927Z,185.63
2022-12-17T00:29:24.448Z,222.43
2022-12-17T00:32:25.912Z,193.23
2022-12-17T00:35:27.343Z,213.40
2022-12-17T00:38:28.769Z,201.30
2022-12-17T00:41:30.361Z,217.68
2022-12-17T00:44:33.466Z,231.80
2022-12-17T00:47:34.985Z,201.23
2022-12-17T00:50:36.551Z,225.27
2022-12-17T00:53:38.278Z,222.93
2022-12-17T00:56:40.159Z,240.30
2022-12-17T00:59:41.681Z,250.73
2022-12-17T01:02:43.261Z,253.55
2022-12-17T01:05:44.777Z,303.30
2022-12-17T01:08:46.243Z,363.05
2022-12-17T01:11:47.700Z,267.40
2022-12-17T01:14:49.341Z,233.63
2022-12-17T01:17:52.472Z,232.93
2022-12-17T01:20:57.682Z,260.30
2022-12-17T01:23:59.224Z,248.15
2022-12-17T01:27:00.837Z,253.82
2022-12-17T01:30:02.511Z,238.43
2022-12-17T01:33:06.378Z,291.17
2022-12-17T01:36:08.412Z,253.93
2022-12-17T01:39:09.838Z,259.10
2022-12-17T01:42:13.808Z,274.88
2022-12-17T01:45:15.282Z,286.85
2022-12-17T01:48:17.845Z,220.27
2022-12-17T01:51:19.741Z,317.65
2022-12-17T01:54:22.070Z,283.50
2022-12-17T01:57:25.049Z,315.65
2022-12-17T02:00:26.628Z,353.70
2022-12-17T02:03:28.139Z,268.17
2022-12-17T02:06:35.254Z,245.63
2022-12-17T02:09:55.523Z,335.05
2022-12-17T02:13:04.177Z,319.88
2022-12-17T02:16:14.995Z,258.58
2022-12-17T02:19:42.777Z,305.40
2022-12-17T02:22:52.945Z,246.18
2022-12-17T02:26:04.091Z,261.27
2022-12-17T02:29:08.084Z,276.13
2022-12-17T02:32:12.272Z,284.33
2022-12-17T02:35:22.667Z,306.02
2022-12-17T02:38:29.811Z,294.38
2022-12-17T02:41:40.203Z,248.52
2022-12-17T02:44:43.964Z,255.43
2022-12-17T02:47:45.609Z,276.90
2022-12-17T02:50:47.919Z,204.57
2022-12-17T02:56:54.612Z,224.50
2022-12-17T02:59:56.043Z,222.23
2022-12-17T03:02:58.296Z,221.40
2022-12-17T03:05:59.948Z,218.27
2022-12-17T03:09:01.449Z,252.18
2022-12-17T03:12:03.438Z,208.95
2022-12-17T03:15:05.291Z,216.43
2022-12-17T03:18:06.752Z,224.80
2022-12-17T03:21:08.204Z,190.82
2022-12-17T03:24:09.844Z,216.98
2022-12-17T03:27:11.663Z,180.93
2022-12-17T03:30:13.108Z,225.23
2022-12-17T03:33:14.577Z,210.68
2022-12-17T03:36:15.976Z,190.90
2022-12-17T03:39:17.433Z,215.75
2022-12-17T03:42:18.951Z,183.80
2022-12-17T03:45:20.553Z,176.65
2022-12-17T03:48:22.027Z,227.80
2022-12-17T03:51:23.527Z,234.60
2022-12-17T03:54:24.982Z,197.23
2022-12-17T03:57:26.447Z,189.48
2022-12-17T04:00:27.848Z,243.35
2022-12-17T04:03:29.391Z,210.30
2022-12-17T04:06:30.928Z,234.02
2022-12-17T04:09:32.412Z,202.77
2022-12-17T04:12:33.914Z,192.10
2022-12-17T04:15:35.397Z,190.15
2022-12-17T04:18:36.936Z,180.13
2022-12-17T04:21:39.136Z,166.23
2022-12-17T04:24:40.661Z,183.95
2022-12-17T04:27:42.089Z,216.07
2022-12-17T04:30:43.555Z,163.90
2022-12-17T04:33:45.070Z,196.75
2022-12-17T04:36:46.554Z,214.15
2022-12-17T04:39:48.076Z,196.48
2022-12-17T04:42:49.552Z,220.23
2022-12-17T04:45:51.110Z,198.27
2022-12-17T04:48:52.601Z,197.52
2022-12-17T04:51:54.054Z,204.20
2022-12-17T04:54:55.509Z,197.07
2022-12-17T04:58:05.181Z,217.63
2022-12-17T05:01:07.033Z,246.00
2022-12-17T05:04:08.780Z,187.55
2022-12-17T05:07:10.293Z,214.93
2022-12-17T05:10:12.269Z,204.57
2022-12-17T05:13:13.752Z,192.68
2022-12-17T05:16:15.276Z,189.00
2022-12-17T05:19:16.937Z,222.45
2022-12-17T05:22:18.418Z,204.90
2022-12-17T05:25:19.834Z,199.68
2022-12-17T05:28:21.275Z,221.07
2022-12-17T05:31:22.741Z,249.40
2022-12-17T05:34:24.262Z,175.52
2022-12-17T05:37:26.203Z,218.95
2022-12-17T05:40:27.655Z,222.48
2022-12-17T05:43:29.110Z,209.90
2022-12-17T05:46:30.730Z,208.57
2022-12-17T05:49:32.262Z,229.48
2022-12-17T05:52:33.849Z,197.30
2022-12-17T05:55:35.305Z,232.55
2022-12-17T05:58:37.123Z,221.82
2022-12-17T06:01:38.827Z,209.27
2022-12-17T06:04:40.307Z,219.40
2022-12-17T06:07:41.792Z,211.60
2022-12-17T06:10:43.248Z,228.65
2022-12-17T06:13:45.070Z,239.23
2022-12-17T06:16:46.490Z,218.52
2022-12-17T06:19:47.984Z,212.88
2022-12-17T06:23:06.031Z,193.77
2022-12-17T06:26:07.478Z,215.73
2022-12-17T06:29:08.992Z,227.38
2022-12-17T06:32:10.458Z,225.70
2022-12-17T06:35:11.987Z,237.52
2022-12-17T06:38:13.516Z,223.00
2022-12-17T06:41:15.031Z,243.15
2022-12-17T06:44:16.524Z,237.13
2022-12-17T06:47:18.399Z,237.40
2022-12-17T06:50:19.881Z,226.07
2022-12-17T06:53:21.316Z,234.65
2022-12-17T06:56:22.815Z,229.00
2022-12-17T06:59:24.289Z,275.23
2022-12-17T07:02:25.863Z,244.18
2022-12-17T07:05:27.717Z,267.83
2022-12-17T07:08:31.420Z,257.98
2022-12-17T07:11:32.942Z,259.23
2022-12-17T07:14:34.472Z,223.40
2022-12-17T07:17:35.937Z,261.05
2022-12-17T07:20:37.433Z,272.48
2022-12-17T07:23:39.233Z,240.32
2022-12-17T07:26:40.848Z,256.38
2022-12-17T07:29:42.319Z,277.70
2022-12-17T07:32:43.764Z,281.30
2022-12-17T07:35:45.311Z,270.20
2022-12-17T07:38:46.826Z,260.70
2022-12-17T07:41:48.315Z,264.02
2022-12-17T07:44:49.786Z,291.08
2022-12-17T07:47:54.740Z,266.95
2022-12-17T07:50:56.621Z,262.83
2022-12-17T07:53:59.125Z,251.75
2022-12-17T07:57:00.868Z,249.95
2022-12-17T08:00:02.484Z,240.35
2022-12-17T08:03:06.436Z,261.50
2022-12-17T08:06:08.026Z,246.05
2022-12-17T08:09:09.448Z,230.57
2022-12-17T08:12:10.866Z,194.25
2022-12-17T08:15:12.290Z,184.70
2022-12-17T08:18:13.748Z,212.52
2022-12-17T08:21:15.328Z,193.77
2022-12-17T08:24:16.807Z,178.25
2022-12-17T08:27:18.533Z,156.27
2022-12-17T08:30:20.481Z,161.50
2022-12-17T08:33:21.995Z,166.52
2022-12-17T08:36:23.906Z,193.57
2022-12-17T08:39:25.671Z,163.18
2022-12-17T08:42:27.080Z,178.95
2022-12-17T08:45:28.509Z,187.45
2022-12-17T08:48:29.933Z,174.00
2022-12-17T08:51:31.431Z,196.30
2022-12-17T08:54:32.927Z,137.93
2022-12-17T08:57:34.386Z,161.38
2022-12-17T09:00:35.867Z,135.50
2022-12-17T09:03:37.693Z,139.82
2022-12-17T09:06:39.556Z,155.25
2022-12-17T09:09:41.077Z,128.52
2022-12-17T09:12:42.567Z,138.52
2022-12-17T09:15:44.047Z,141.68
2022-12-17T09:18:45.528Z,154.60
2022-12-17T09:21:47.060Z,147.32
2022-12-17T09:24:48.585Z,155.70
2022-12-17T09:27:50.094Z,135.32
2022-12-17T09:30:51.613Z,159.43
2022-12-17T09:33:53.211Z,152.68
2022-12-17T09:36:54.719Z,139.93
2022-12-17T09:39:56.444Z,121.50
2022-12-17T09:43:05.470Z,145.57
2022-12-17T09:46:40.188Z,132.13
2022-12-17T09:49:42.124Z,126.18
2022-12-17T09:52:44.041Z,112.45
2022-12-17T09:55:51.264Z,119.57
2022-12-17T09:58:52.747Z,131.10
2022-12-17T10:01:54.416Z,119.78
2022-12-17T10:04:56.746Z,119.35
2022-12-17T10:07:59.499Z,116.35
2022-12-17T10:11:11.958Z,137.68
2022-12-17T10:14:19.550Z,115.22
2022-12-17T10:17:22.820Z,137.23
2022-12-17T10:20:29.820Z,115.97
2022-12-17T10:23:34.007Z,122.25
2022-12-17T10:26:36.059Z,110.97
2022-12-17T10:29:40.208Z,114.05
2022-12-17T10:32:55.105Z,119.90
2022-12-17T10:35:56.623Z,103.13
2022-12-17T10:38:58.088Z,120.82
2022-12-17T10:41:59.497Z,126.28
2022-12-17T10:45:14.820Z,128.15
2022-12-17T10:48:24.908Z,120.47
2022-12-17T10:51:36.169Z,114.72
2022-12-17T10:54:37.680Z,130.82
2022-12-17T10:57:40.567Z,127.78
2022-12-17T11:00:49.062Z,130.10
2022-12-17T11:03:51.437Z,121.65
2022-12-17T11:06:56.732Z,124.88
2022-12-17T11:10:06.980Z,142.55
2022-12-17T11:13:15.536Z,128.25
2022-12-17T11:16:29.579Z,139.82
2022-12-17T11:19:43.306Z,134.93
2022-12-17T11:22:50.275Z,117.97
2022-12-17T11:26:02.562Z,111.43
2022-12-17T11:29:04.174Z,121.07
2022-12-17T11:32:16.694Z,125.47
2022-12-17T11:35:58.589Z,118.13
2022-12-17T11:39:18.634Z,96.40
2022-12-17T11:42:30.683Z,102.38
2022-12-17T11:45:40.206Z,100.70
2022-12-17T11:49:17.841Z,99.55
2022-12-17T11:52:33.339Z,97.32
2022-12-17T11:55:46.448Z,96.72
2022-12-17T11:58:55.925Z,99.93
2022-12-17T12:02:09.515Z,96.50
2022-12-17T12:05:54.935Z,96.30
2022-12-17T12:09:13.649Z,86.03
2022-12-17T12:12:59.211Z,83.93
2022-12-17T12:16:16.468Z,95.75
2022-12-17T12:19:36.766Z,89.13
2022-12-17T12:23:07.816Z,95.82
2022-12-17T12:26:23.536Z,92.32
2022-12-17T12:29:31.749Z,96.85
2022-12-17T12:33:11.217Z,86.25
2022-12-17T12:36:15.586Z,85.82
2022-12-17T12:39:22.774Z,93.78
2022-12-17T12:42:39.655Z,94.22
2022-12-17T12:45:50.626Z,100.35
2022-12-17T12:49:07.603Z,98.05
2022-12-17T12:52:21.216Z,100.10
2022-12-17T12:55:22.780Z,103.10
2022-12-17T12:58:31.230Z,98.00
2022-12-17T13:01:36.540Z,106.72
2022-12-17T13:04:38.223Z,111.95
2022-12-17T13:07:39.663Z,97.85
2022-12-17T13:10:42.059Z,89.43
2022-12-17T13:13:48.516Z,94.03
2022-12-17T13:17:06.131Z,109.70
2022-12-17T13:20:25.648Z,103.18
2022-12-17T13:23:36.577Z,95.72
2022-12-17T13:26:41.126Z,88.65
2022-12-17T13:29:42.627Z,101.07
2022-12-17T13:32:49.034Z,115.88
2022-12-17T13:36:16.387Z,105.57
2022-12-17T13:39:50.835Z,95.97
2022-12-17T13:42:52.761Z,104.07
2022-12-17T13:45:55.625Z,118.20
2022-12-17T13:49:01.748Z,120.55
2022-12-17T13:55:25.663Z,105.78
2022-12-17T13:58:33.779Z,100.00
2022-12-17T14:01:45.232Z,104.28
2022-12-17T14:04:52.118Z,101.75
2022-12-17T14:07:57.164Z,118.32
2022-12-17T14:11:03.773Z,92.20
2022-12-17T14:14:28.736Z,104.25
2022-12-17T14:17:39.961Z,98.25
2022-12-17T14:20:41.691Z,116.63
2022-12-17T14:23:44.683Z,99.15
2022-12-17T14:26:51.200Z,97.45
2022-12-17T14:29:53.042Z,104.97
2022-12-17T14:32:55.752Z,97.25
2022-12-17T14:35:59.576Z,89.43
2022-12-17T14:39:04.553Z,103.20
2022-12-17T14:42:18.456Z,112.95
2022-12-17T14:45:19.936Z,110.65
2022-12-17T14:48:25.757Z,100.75
2022-12-17T14:51:34.921Z,105.53
2022-12-17T14:54:36.400Z,127.25
2022-12-17T14:57:37.942Z,112.15
2022-12-17T15:00:49.430Z,116.60
2022-12-17T15:03:50.992Z,108.75
2022-12-17T15:06:54.643Z,126.32
2022-12-17T15:09:56.691Z,125.45
2022-12-17T15:13:01.239Z,124.00
2022-12-17T15:16:02.756Z,117.28
2022-12-17T15:19:04.211Z,109.07
2022-12-17T15:22:05.621Z,114.30
2022-12-17T15:25:07.365Z,116.22
2022-12-17T15:28:10.312Z,114.70
2022-12-17T15:31:14.734Z,125.32
2022-12-17T15:34:16.275Z,93.75
2022-12-17T15:37:21.067Z,127.10
2022-12-17T15:40:25.532Z,104.20
2022-12-17T15:43:27.006Z,110.57
2022-12-17T15:46:28.518Z,98.63
2022-12-17T15:49:30.035Z,102.35
2022-12-17T15:52:31.662Z,109.47
2022-12-17T15:55:33.602Z,105.03
2022-12-17T15:58:35.312Z,109.10
2022-12-17T16:01:37.180Z,116.20
2022-12-17T16:04:38.806Z,114.60
2022-12-17T16:07:40.292Z,121.63
2022-12-17T16:10:41.737Z,101.45
2022-12-17T16:13:43.381Z,113.22
2022-12-17T16:16:44.800Z,105.25
2022-12-17T16:19:46.235Z,117.95
2022-12-17T16:22:48.141Z,110.72
2022-12-17T16:26:00.606Z,121.80
2022-12-17T16:29:02.106Z,106.38
2022-12-17T16:32:03.822Z,108.53
2022-12-17T16:35:06.208Z,112.10
2022-12-17T16:38:07.666Z,117.55
2022-12-17T16:41:09.327Z,130.25
2022-12-17T16:44:10.881Z,109.70
2022-12-17T16:47:12.374Z,119.18
2022-12-17T16:50:13.920Z,111.30
2022-12-17T16:53:16.909Z,108.53
2022-12-17T16:56:21.391Z,135.35
2022-12-17T16:59:23.387Z,111.93
2022-12-17T17:02:24.986Z,128.80
2022-12-17T17:05:27.387Z,112.90
2022-12-17T17:08:29.299Z,134.25
2022-12-17T17:11:31.133Z,104.40
2022-12-17T17:14:32.590Z,128.57
2022-12-17T17:17:54.573Z,123.63
2022-12-17T17:21:11.691Z,106.07
2022-12-17T17:24:20.753Z,117.00
2022-12-17T17:27:23.030Z,147.73
2022-12-17T17:30:24.453Z,137.55
2022-12-17T17:33:34.071Z,131.38
2022-12-17T17:36:36.266Z,121.82
2022-12-17T17:39:37.679Z,142.73
2022-12-17T17:42:39.110Z,111.75
2022-12-17T17:45:40.529Z,117.03
2022-12-17T17:48:43.388Z,107.38
2022-12-17T17:55:06.984Z,124.53
2022-12-17T17:58:08.399Z,127.38
2022-12-17T18:01:12.684Z,121.03
2022-12-17T18:04:16.742Z,135.60
2022-12-17T18:10:28.853Z,147.27
2022-12-17T18:13:30.537Z,153.68
2022-12-17T18:16:47.914Z,171.07
2022-12-17T18:19:49.405Z,129.57
2022-12-17T18:22:50.949Z,124.00
2022-12-17T18:25:52.410Z,146.20
2022-12-17T18:28:54.571Z,170.80
2022-12-17T18:31:56.035Z,139.70
2022-12-17T18:34:57.638Z,156.32
2022-12-17T18:37:59.220Z,142.82
2022-12-17T18:41:18.030Z,137.77
2022-12-17T18:44:20.342Z,156.15
2022-12-17T18:47:22.217Z,149.93
2022-12-17T18:50:23.722Z,154.57
2022-12-17T18:53:25.191Z,153.52
2022-12-17T18:56:59.542Z,143.57
2022-12-17T18:59:50.069Z,159.90
2022-12-17T19:02:54.784Z,152.00
2022-12-17T19:05:56.361Z,135.05
2022-12-17T19:08:58.263Z,145.50
2022-12-17T19:12:00.160Z,142.02
2022-12-17T19:15:01.662Z,139.07
2022-12-17T19:18:03.218Z,127.57
2022-12-17T19:21:06.566Z,126.85
2022-12-17T19:24:11.655Z,149.80
2022-12-17T19:27:13.095Z,153.57
2022-12-17T19:30:14.631Z,127.45
2022-12-17T19:33:16.082Z,156.40
2022-12-17T19:36:23.911Z,152.70
2022-12-17T19:39:29.405Z,188.35
2022-12-17T19:42:37.129Z,160.93
2022-12-17T19:45:39.051Z,160.32
2022-12-17T19:48:47.979Z,160.18
2022-12-17T19:51:49.937Z,184.35
2022-12-17T19:54:51.393Z,156.10
2022-12-17T19:57:53.186Z,173.88
2022-12-17T20:01:05.855Z,197.43
2022-12-17T20:04:07.672Z,167.85
2022-12-17T20:07:09.128Z,206.75
2022-12-17T20:10:10.636Z,163.95
2022-12-17T20:13:12.103Z,160.43
2022-12-17T20:16:15.013Z,144.00
2022-12-17T20:19:22.610Z,182.93
2022-12-17T20:22:24.395Z,171.82
2022-12-17T20:25:27.017Z,147.68
2022-12-17T20:28:28.438Z,152.07
2022-12-17T20:31:30.264Z,176.73
2022-12-17T20:34:31.812Z,181.07
2022-12-17T20:37:33.281Z,151.32
2022-12-17T20:40:40.871Z,146.40
2022-12-17T20:43:42.607Z,129.65
2022-12-17T20:46:44.116Z,139.80
2022-12-17T20:49:45.704Z,141.77
2022-12-17T20:52:47.205Z,118.45
2022-12-17T20:55:59.468Z,144.85
2022-12-17T20:59:04.399Z,137.45
2022-12-17T21:02:05.985Z,134.07
2022-12-17T21:05:07.706Z,159.45
2022-12-17T21:08:09.152Z,165.40
2022-12-17T21:11:11.349Z,148.70
2022-12-17T21:14:16.254Z,166.40
2022-12-17T21:17:17.853Z,159.85
2022-12-17T21:20:19.492Z,133.95
2022-12-17T21:23:21.311Z,139.05
2022-12-17T21:26:28.399Z,155.40
2022-12-17T21:29:29.838Z,128.45
2022-12-17T21:32:33.804Z,151.00
2022-12-17T21:35:35.526Z,126.40
2022-12-17T21:38:37.425Z,138.98
2022-12-17T21:41:44.515Z,165.90
2022-12-17T21:44:49.332Z,144.90
2022-12-17T21:47:51.064Z,154.45
2022-12-17T21:50:52.505Z,147.05
2022-12-17T21:53:56.856Z,159.57
2022-12-17T21:56:58.306Z,160.80
2022-12-17T21:59:59.751Z,170.02
2022-12-17T22:03:01.644Z,173.85
2022-12-17T22:06:14.144Z,155.10
2022-12-17T22:09:18.801Z,144.73
2022-12-17T22:12:31.960Z,153.48
2022-12-17T22:15:43.300Z,155.00
2022-12-17T22:18:49.982Z,144.40
2022-12-17T22:21:51.708Z,148.07
2022-12-17T22:25:03.072Z,171.30
2022-12-17T22:28:07.632Z,150.52
2022-12-17T22:31:12.756Z,155.52
2022-12-17T22:35:09.282Z,151.80
2022-12-17T22:40:48.605Z,121.72
2022-12-17T22:44:34.013Z,176.02
2022-12-17T22:44:41.442Z,141.48
2022-12-17T22:47:47.935Z,128.82
2022-12-17T22:51:02.339Z,128.43
2022-12-17T22:54:12.560Z,175.82
2022-12-17T22:57:37.522Z,161.27
2022-12-17T23:00:36.202Z,131.25
2022-12-17T23:03:38.361Z,116.22
2022-12-17T23:06:40.674Z,150.02
2022-12-17T23:09:42.144Z,145.05
2022-12-17T23:12:44.460Z,145.77
2022-12-17T23:15:45.931Z,148.23
2022-12-17T23:18:48.929Z,148.50
2022-12-17T23:21:50.334Z,157.88
2022-12-17T23:24:51.831Z,119.60
2022-12-17T23:27:55.052Z,115.47
2022-12-17T23:30:56.509Z,127.43
2022-12-17T23:33:58.956Z,145.88
2022-12-17T23:37:00.421Z,136.90
2022-12-17T23:40:02.258Z,131.77
2022-12-17T23:43:03.720Z,147.40
2022-12-17T23:46:06.858Z,134.85
2022-12-17T23:49:08.283Z,112.97
2022-12-17T23:52:09.743Z,141.38
2022-12-17T23:55:11.287Z,134.82
2022-12-17T23:58:12.776Z,122.30
